Norwegian Star — C6FR3 — position and weather

sailwx.info

Track history (hours):
 
Tides and Currents Weather Stations Pressure Air Temp Water Temp Dewpoint Dewpoint Depression Visibility Wind Speed Wind Dir Waves Ship Positions

Norwegian Star

Operator: Norwegian Cruise Line

Last reported at 2018-May-25 18:31 UTC. Time now 2018-May-25 18:57 UTC.
Position N 43°43' E 007°29'.

Type: Passenger vessel. MMSI: 311082000.

Date/timePositionNaut miles runAvg speedWind from/ knotsBaromVisibWave heightAir tempDewpointWater temp
2018-May-25 18:31N 43°43' E 007°29'1 2.6
2018-May-25 17:58N 43°43' E 007°27'1 2.0
2018-May-25 17:29N 43°44' E 007°26'0 0.1
2018-May-25 17:01N 43°44' E 007°26'0 0.0
2018-May-25 16:30N 43°44' E 007°26'0 0.0
2018-May-25 15:57N 43°44' E 007°26'0 0.0
2018-May-25 15:31N 43°44' E 007°26'0 0.0
2018-May-25 15:01N 43°44' E 007°26'0 0.0
2018-May-25 14:31N 43°44' E 007°26'0 0.0
2018-May-25 14:00N 43°44' E 007°26'0 0.0
2018-May-25 13:31N 43°44' E 007°26'0 0.0
2018-May-25 13:00N 43°44' E 007°26'0 0.0
2018-May-25 12:31N 43°44' E 007°26'0 0.0
2018-May-25 11:58N 43°44' E 007°26'0 0.0
2018-May-25 11:30N 43°44' E 007°26'0 0.0
2018-May-25 11:00N 43°44' E 007°26'0 0.0
2018-May-25 10:28N 43°44' E 007°26'2 0.7
2018-May-25 06:54N 43°41' E 007°26'1121.8
2018-May-25 06:24N 43°31' E 007°22'923.0
2018-May-25 06:00N 43°22' E 007°18'1122.9
2018-May-25 05:30N 43°13' E 007°09'1122.9
2018-May-25 05:00N 43°04' E 006°59'1122.8
2018-May-25 04:31N 42°56' E 006°47'1222.5
2018-May-25 04:00N 42°49' E 006°36'1122.7
2018-May-25 03:30N 42°43' E 006°22'1122.6
2018-May-25 03:00N 42°38' E 006°09'1223.1
2018-May-25 02:30N 42°33' E 005°55'6823.7
2018-May-24 23:37N 42°03' E 004°32'323.7
2018-May-24 23:30N 42°02' E 004°29'1223.6
2018-May-24 22:59N 41°56' E 004°14'4423.4
2018-May-24 21:07N 41°37' E 003°22'322.8
2018-May-24 21:00N 41°36' E 003°18'1123.0
2018-May-24 20:31N 41°31' E 003°05'1223.0
2018-May-24 20:00N 41°25' E 002°51'1020.1
2018-May-24 19:30N 41°21' E 002°39'713.5
2018-May-24 19:00N 41°18' E 002°31'816.4
2018-May-24 18:30N 41°16' E 002°20'612.1
2018-May-24 18:00N 41°15' E 002°12'5 9.7
2018-May-24 17:30N 41°20' E 002°10'2 3.6
2018-May-24 16:58N 41°22' E 002°11'0 0.0
2018-May-24 16:28N 41°22' E 002°11'0 0.0
2018-May-24 15:58N 41°22' E 002°11'0 0.0
2018-May-24 15:28N 41°22' E 002°11'0 0.0
2018-May-24 14:58N 41°22' E 002°11'0 0.0
2018-May-24 14:28N 41°22' E 002°11'0 0.0
2018-May-24 13:58N 41°22' E 002°11'0 0.0
2018-May-24 13:28N 41°22' E 002°11'0 0.0
2018-May-24 08:58N 41°22' E 002°11'0 0.0
2018-May-24 08:25N 41°22' E 002°11'0 0.0
2018-May-24 07:58N 41°22' E 002°11'0 0.0
2018-May-24 07:28N 41°22' E 002°11'0 0.0
2018-May-24 06:55N 41°22' E 002°11'0 0.0
2018-May-24 06:28N 41°22' E 002°11'0 0.0
2018-May-24 05:58N 41°22' E 002°11'0 0.0
2018-May-24 05:28N 41°22' E 002°11'0 0.0
2018-May-24 04:58N 41°22' E 002°11'0 0.0
2018-May-24 04:25N 41°22' E 002°11'0 0.0
2018-May-24 03:58N 41°22' E 002°11'0 0.0
2018-May-24 03:25N 41°22' E 002°11'0 0.0
2018-May-24 02:58N 41°22' E 002°11'0 0.0
2018-May-24 02:22N 41°22' E 002°11'0 0.0
2018-May-24 01:55N 41°22' E 002°11'0 0.0
2018-May-24 01:28N 41°22' E 002°11'0 0.0
2018-May-24 00:58N 41°22' E 002°11'0 0.0
2018-May-24 00:28N 41°22' E 002°11'0 0.0
2018-May-23 23:58N 41°22' E 002°11'0 0.0
2018-May-23 23:28N 41°22' E 002°11'0 0.0
2018-May-23 22:58N 41°22' E 002°11'0 0.0
2018-May-23 22:28N 41°22' E 002°11'0 0.0
2018-May-23 21:55N 41°22' E 002°11'0 0.0
2018-May-23 21:25N 41°22' E 002°11'0 0.0
2018-May-23 20:55N 41°22' E 002°11'0 0.0
2018-May-23 20:25N 41°22' E 002°11'0 0.0
2018-May-23 19:58N 41°22' E 002°11'0 0.0
2018-May-23 19:25N 41°22' E 002°11'0 0.0
2018-May-23 18:58N 41°22' E 002°11'0 0.0
2018-May-23 18:28N 41°22' E 002°11'0 0.0
2018-May-23 17:55N 41°22' E 002°11'0 0.0
2018-May-23 17:30N 41°22' E 002°11'1 2.1
2018-May-23 17:00N 41°21' E 002°10'4 7.5
2018-May-23 16:30N 41°17' E 002°11'4 8.1
2018-May-23 16:00N 41°15' E 002°15'2 4.1
2018-May-23 15:30N 41°15' E 002°18'510.2
2018-May-23 15:01N 41°18' E 002°23'611.2
2018-May-23 14:30N 41°23' E 002°27'712.8
2018-May-23 14:00N 41°19' E 002°20'714.1
2018-May-23 13:30N 41°22' E 002°28'5 9.4
2018-May-23 12:59N 41°23' E 002°22'4 8.3
2018-May-23 12:30N 41°19' E 002°19'3 5.2
2018-May-23 12:00N 41°18' E 002°21'4 7.6
2018-May-23 11:30N 41°20' E 002°25'5 9.4
2018-May-23 11:00N 41°24' E 002°29'5 9.7
2018-May-23 10:28N 41°23' E 002°22'4 9.1
2018-May-23 10:00N 41°19' E 002°23'510.9
2018-May-23 09:30N 41°17' E 002°30'611.8
2018-May-23 09:00N 41°20' E 002°38'611.7
2018-May-23 08:30N 41°22' E 002°44'710.8
2018-May-23 07:53N 41°25' E 002°52'411.3
2018-May-23 07:30N 41°27' E 002°58'611.1
2018-May-23 07:00N 41°30' E 003°04'610.8
2018-May-23 06:29N 41°32' E 003°11'610.7
2018-May-23 05:57N 41°35' E 003°18'611.2
2018-May-23 05:27N 41°37' E 003°25'  
Track history (hours):
 
Tides and Currents Weather Stations Pressure Air Temp Water Temp Dewpoint Dewpoint Depression Visibility Wind Speed Wind Dir Waves Ship Positions

Norwegian Star

Operator: Norwegian Cruise Line

Last reported at 2018-May-25 18:31 UTC. Time now 2018-May-25 18:57 UTC.
Position N 43°43' E 007°29'.

Type: Passenger vessel. MMSI: 311082000.

Date/timePositionNaut miles runAvg speedWind from/ knotsBaromVisibWave heightAir tempDewpointWater temp
2018-May-25 18:31N 43°43' E 007°29'1 2.6
2018-May-25 17:58N 43°43' E 007°27'1 2.0
2018-May-25 17:29N 43°44' E 007°26'0 0.1
2018-May-25 17:01N 43°44' E 007°26'0 0.0
2018-May-25 16:30N 43°44' E 007°26'0 0.0
2018-May-25 15:57N 43°44' E 007°26'0 0.0
2018-May-25 15:31N 43°44' E 007°26'0 0.0
2018-May-25 15:01N 43°44' E 007°26'0 0.0
2018-May-25 14:31N 43°44' E 007°26'0 0.0
2018-May-25 14:00N 43°44' E 007°26'0 0.0
2018-May-25 13:31N 43°44' E 007°26'0 0.0
2018-May-25 13:00N 43°44' E 007°26'0 0.0
2018-May-25 12:31N 43°44' E 007°26'0 0.0
2018-May-25 11:58N 43°44' E 007°26'0 0.0
2018-May-25 11:30N 43°44' E 007°26'0 0.0
2018-May-25 11:00N 43°44' E 007°26'0 0.0
2018-May-25 10:28N 43°44' E 007°26'2 0.7
2018-May-25 06:54N 43°41' E 007°26'1121.8
2018-May-25 06:24N 43°31' E 007°22'923.0
2018-May-25 06:00N 43°22' E 007°18'1122.9
2018-May-25 05:30N 43°13' E 007°09'1122.9
2018-May-25 05:00N 43°04' E 006°59'1122.8
2018-May-25 04:31N 42°56' E 006°47'1222.5
2018-May-25 04:00N 42°49' E 006°36'1122.7
2018-May-25 03:30N 42°43' E 006°22'1122.6
2018-May-25 03:00N 42°38' E 006°09'1223.1
2018-May-25 02:30N 42°33' E 005°55'6823.7
2018-May-24 23:37N 42°03' E 004°32'323.7
2018-May-24 23:30N 42°02' E 004°29'1223.6
2018-May-24 22:59N 41°56' E 004°14'4423.4
2018-May-24 21:07N 41°37' E 003°22'322.8
2018-May-24 21:00N 41°36' E 003°18'1123.0
2018-May-24 20:31N 41°31' E 003°05'1223.0
2018-May-24 20:00N 41°25' E 002°51'1020.1
2018-May-24 19:30N 41°21' E 002°39'713.5
2018-May-24 19:00N 41°18' E 002°31'816.4
2018-May-24 18:30N 41°16' E 002°20'612.1
2018-May-24 18:00N 41°15' E 002°12'5 9.7
2018-May-24 17:30N 41°20' E 002°10'2 3.6
2018-May-24 16:58N 41°22' E 002°11'0 0.0
2018-May-24 16:28N 41°22' E 002°11'0 0.0
2018-May-24 15:58N 41°22' E 002°11'0 0.0
2018-May-24 15:28N 41°22' E 002°11'0 0.0
2018-May-24 14:58N 41°22' E 002°11'0 0.0
2018-May-24 14:28N 41°22' E 002°11'0 0.0
2018-May-24 13:58N 41°22' E 002°11'0 0.0
2018-May-24 13:28N 41°22' E 002°11'0 0.0
2018-May-24 08:58N 41°22' E 002°11'0 0.0
2018-May-24 08:25N 41°22' E 002°11'0 0.0
2018-May-24 07:58N 41°22' E 002°11'0 0.0
2018-May-24 07:28N 41°22' E 002°11'0 0.0
2018-May-24 06:55N 41°22' E 002°11'0 0.0
2018-May-24 06:28N 41°22' E 002°11'0 0.0
2018-May-24 05:58N 41°22' E 002°11'0 0.0
2018-May-24 05:28N 41°22' E 002°11'0 0.0
2018-May-24 04:58N 41°22' E 002°11'0 0.0
2018-May-24 04:25N 41°22' E 002°11'0 0.0
2018-May-24 03:58N 41°22' E 002°11'0 0.0
2018-May-24 03:25N 41°22' E 002°11'0 0.0
2018-May-24 02:58N 41°22' E 002°11'0 0.0
2018-May-24 02:22N 41°22' E 002°11'0 0.0
2018-May-24 01:55N 41°22' E 002°11'0 0.0
2018-May-24 01:28N 41°22' E 002°11'0 0.0
2018-May-24 00:58N 41°22' E 002°11'0 0.0
2018-May-24 00:28N 41°22' E 002°11'0 0.0
2018-May-23 23:58N 41°22' E 002°11'0 0.0
2018-May-23 23:28N 41°22' E 002°11'0 0.0
2018-May-23 22:58N 41°22' E 002°11'0 0.0
2018-May-23 22:28N 41°22' E 002°11'0 0.0
2018-May-23 21:55N 41°22' E 002°11'0 0.0
2018-May-23 21:25N 41°22' E 002°11'0 0.0
2018-May-23 20:55N 41°22' E 002°11'0 0.0
2018-May-23 20:25N 41°22' E 002°11'0 0.0
2018-May-23 19:58N 41°22' E 002°11'0 0.0
2018-May-23 19:25N 41°22' E 002°11'0 0.0
2018-May-23 18:58N 41°22' E 002°11'0 0.0
2018-May-23 18:28N 41°22' E 002°11'0 0.0
2018-May-23 17:55N 41°22' E 002°11'0 0.0
2018-May-23 17:30N 41°22' E 002°11'1 2.1
2018-May-23 17:00N 41°21' E 002°10'4 7.5
2018-May-23 16:30N 41°17' E 002°11'4 8.1
2018-May-23 16:00N 41°15' E 002°15'2 4.1
2018-May-23 15:30N 41°15' E 002°18'510.2
2018-May-23 15:01N 41°18' E 002°23'611.2
2018-May-23 14:30N 41°23' E 002°27'712.8
2018-May-23 14:00N 41°19' E 002°20'714.1
2018-May-23 13:30N 41°22' E 002°28'5 9.4
2018-May-23 12:59N 41°23' E 002°22'4 8.3
2018-May-23 12:30N 41°19' E 002°19'3 5.2
2018-May-23 12:00N 41°18' E 002°21'4 7.6
2018-May-23 11:30N 41°20' E 002°25'5 9.4
2018-May-23 11:00N 41°24' E 002°29'5 9.7
2018-May-23 10:28N 41°23' E 002°22'4 9.1
2018-May-23 10:00N 41°19' E 002°23'510.9
2018-May-23 09:30N 41°17' E 002°30'611.8
2018-May-23 09:00N 41°20' E 002°38'611.7
2018-May-23 08:30N 41°22' E 002°44'710.8
2018-May-23 07:53N 41°25' E 002°52'411.3
2018-May-23 07:30N 41°27' E 002°58'611.1
2018-May-23 07:00N 41°30' E 003°04'610.8
2018-May-23 06:29N 41°32' E 003°11'610.7
2018-May-23 05:57N 41°35' E 003°18'611.2
2018-May-23 05:27N 41°37' E 003°25'  

Dump ship's entire track history